KMIW

Marshalltown Municipal Airport

Marshalltown, Iowa, USA
METAR KMIW 271153Z AUTO 00000KT 10SM CLR 21/21 A2981 RMK AO2 SLP086 T02110206 10233 20183 53009
Observed Flight Rules
May-27 @ 11:53 UTC (14 minutes ago) Visual Flight Rules
Visibility Clouds
10 miles
  • Clear skies
Temperatures Readings
Current 21°C / 70°F
Dewpoint 21°C / 70°F
Humidity 100%
Altimeter 29.81" Hg
Pressure 1008.6 hPa
Elevation 296
METAR KMIW 271153Z AUTO 00000KT 10SM CLR 21/21 A2981 RMK AO2 SLP086 T02110206 10233 20183 53009
Observed Flight Rules
May-27 @ 11:53 UTC
(14 minutes ago)
VFR
Clouds
  • Clear skies
Temperature Dewpoint
21°C / 70°F 21°C / 70°F
Humidity Altimeter Pressure
100% 29.81" Hg 1008.6 hPa